createdAt,value
2023-03-26T00:00:48.765Z,99.99
2023-03-26T00:01:48.771Z,99.99
2023-03-26T00:02:48.762Z,99.99
2023-03-26T00:03:48.730Z,99.99
2023-03-26T00:04:48.722Z,99.99
2023-03-26T00:05:48.733Z,99.99
2023-03-26T00:06:48.724Z,99.99
2023-03-26T00:07:48.680Z,99.99
2023-03-26T00:08:48.696Z,99.99
2023-03-26T00:09:48.661Z,99.61
2023-03-26T00:10:48.664Z,99.61
2023-03-26T00:11:48.651Z,99.51
2023-03-26T00:12:48.628Z,99.40
2023-03-26T00:13:48.627Z,99.40
2023-03-26T00:14:48.604Z,99.30
2023-03-26T00:15:48.590Z,99.30
2023-03-26T00:16:48.630Z,99.19
2023-03-26T00:17:48.635Z,98.84
2023-03-26T00:18:48.568Z,98.74
2023-03-26T00:19:48.560Z,98.74
2023-03-26T00:20:48.549Z,98.84
2023-03-26T00:21:48.556Z,98.94
2023-03-26T00:22:48.521Z,99.15
2023-03-26T00:23:48.517Z,99.25
2023-03-26T00:24:48.518Z,99.15
2023-03-26T00:25:49.571Z,99.40
2023-03-26T00:26:48.558Z,99.40
2023-03-26T00:27:48.463Z,99.61
2023-03-26T00:28:48.468Z,99.61
2023-03-26T00:29:48.472Z,99.71
2023-03-26T00:30:48.486Z,99.82
2023-03-26T00:31:48.497Z,99.61
2023-03-26T00:32:53.428Z,99.46
2023-03-26T00:33:48.424Z,99.15
2023-03-26T00:34:48.414Z,99.25
2023-03-26T00:38:10.990Z,99.15
2023-03-26T00:39:11.965Z,99.05
2023-03-26T00:40:11.952Z,99.05
2023-03-26T00:41:11.950Z,98.94
2023-03-26T00:42:11.913Z,98.84
2023-03-26T00:43:11.911Z,98.84
2023-03-26T00:44:11.903Z,98.84
2023-03-26T00:45:11.891Z,99.05
2023-03-26T00:46:11.949Z,98.84
2023-03-26T00:47:11.874Z,98.43
2023-03-26T00:48:11.851Z,98.84
2023-03-26T00:49:11.854Z,98.94
2023-03-26T00:50:11.838Z,98.94
2023-03-26T00:51:11.859Z,98.74
2023-03-26T00:52:11.806Z,98.74
2023-03-26T00:53:11.809Z,98.63
2023-03-26T00:54:11.793Z,98.32
2023-03-26T00:55:11.799Z,98.53
2023-03-26T00:56:11.803Z,98.32
2023-03-26T00:57:11.869Z,98.43
2023-03-26T00:58:11.762Z,97.60
2023-03-26T00:59:11.775Z,97.39
2023-03-26T01:00:11.733Z,97.60
2023-03-26T01:01:11.755Z,98.01
2023-03-26T01:02:11.731Z,98.11
2023-03-26T01:03:12.953Z,98.01
2023-03-26T01:04:11.728Z,97.39
2023-03-26T01:05:11.739Z,97.29
2023-03-26T01:06:11.687Z,97.19
2023-03-26T01:07:11.672Z,97.19
2023-03-26T01:08:11.665Z,97.39
2023-03-26T01:09:11.636Z,97.91
2023-03-26T01:10:11.628Z,98.11
2023-03-26T01:11:11.631Z,98.43
2023-03-26T01:12:11.623Z,98.43
2023-03-26T01:13:11.590Z,98.11
2023-03-26T01:14:11.586Z,98.74
2023-03-26T01:15:11.584Z,98.53
2023-03-26T01:16:11.612Z,98.53
2023-03-26T01:17:11.572Z,98.94
2023-03-26T01:18:11.537Z,99.05
2023-03-26T01:19:11.528Z,98.63
2023-03-26T01:20:11.525Z,98.22
2023-03-26T01:21:11.516Z,98.53
2023-03-26T01:22:11.516Z,98.53
2023-03-26T01:23:11.490Z,98.74
2023-03-26T01:24:11.481Z,98.74
2023-03-26T01:25:11.467Z,98.53
2023-03-26T01:26:11.477Z,98.84
2023-03-26T01:27:11.450Z,98.74
2023-03-26T01:28:11.427Z,98.53
2023-03-26T01:29:11.428Z,98.43
2023-03-26T01:30:11.413Z,98.32
2023-03-26T01:31:11.656Z,98.11
2023-03-26T01:32:11.441Z,98.01
2023-03-26T01:33:11.460Z,98.11
2023-03-26T01:34:11.380Z,97.71
2023-03-26T01:35:11.362Z,97.08
2023-03-26T01:36:11.416Z,96.88
2023-03-26T01:37:11.354Z,97.29
2023-03-26T01:38:11.333Z,97.19
2023-03-26T01:39:11.319Z,97.29
2023-03-26T01:40:11.313Z,96.77
2023-03-26T01:41:11.318Z,96.88
2023-03-26T01:42:11.288Z,96.67
2023-03-26T01:43:11.303Z,96.88
2023-03-26T01:44:11.265Z,96.88
2023-03-26T01:45:11.274Z,96.56
2023-03-26T01:46:11.300Z,96.36
2023-03-26T01:47:11.268Z,95.43
2023-03-26T01:48:11.219Z,95.84
2023-03-26T01:49:11.214Z,95.53
2023-03-26T01:50:11.194Z,95.64
2023-03-26T01:51:11.210Z,95.84
2023-03-26T01:52:11.213Z,96.47
2023-03-26T01:53:11.169Z,96.36
2023-03-26T01:54:11.164Z,96.47
2023-03-26T01:55:11.159Z,96.56
2023-03-26T01:56:11.163Z,96.47
2023-03-26T01:57:11.200Z,96.47
2023-03-26T01:58:11.162Z,96.77
2023-03-26T01:59:11.111Z,96.88
2023-03-26T02:00:11.104Z,96.98
2023-03-26T02:01:11.095Z,96.56
2023-03-26T02:02:11.189Z,96.26
2023-03-26T02:03:11.131Z,95.84
2023-03-26T02:04:11.072Z,96.05
2023-03-26T02:05:11.050Z,95.53
2023-03-26T02:06:11.050Z,95.95
2023-03-26T02:07:11.060Z,95.74
2023-03-26T02:08:11.010Z,95.74
2023-03-26T02:09:11.017Z,95.53
2023-03-26T02:10:10.991Z,95.32
2023-03-26T02:11:11.533Z,95.64
2023-03-26T02:12:11.006Z,95.43
2023-03-26T02:13:10.962Z,95.53
2023-03-26T02:14:10.970Z,95.53
2023-03-26T02:15:10.944Z,95.64
2023-03-26T02:16:10.987Z,95.84
2023-03-26T02:17:10.942Z,95.43
2023-03-26T02:18:10.963Z,95.22
2023-03-26T02:19:10.918Z,95.32
2023-03-26T02:20:10.905Z,95.02
2023-03-26T02:21:10.883Z,94.60
2023-03-26T02:22:10.897Z,94.50
2023-03-26T02:23:10.864Z,94.29
2023-03-26T02:24:10.844Z,93.88
2023-03-26T02:25:10.842Z,94.40
2023-03-26T02:26:10.833Z,94.19
2023-03-26T02:27:10.844Z,95.02
2023-03-26T02:28:10.800Z,94.71
2023-03-26T02:29:10.802Z,95.32
2023-03-26T02:30:10.785Z,95.06
2023-03-26T02:31:10.783Z,94.85
2023-03-26T02:32:10.818Z,94.65
2023-03-26T02:33:10.771Z,94.44
2023-03-26T02:34:10.751Z,94.96
2023-03-26T02:35:10.763Z,94.13
2023-03-26T02:36:10.866Z,94.23
2023-03-26T02:37:10.725Z,94.44
2023-03-26T02:38:10.706Z,94.65
2023-03-26T02:39:10.749Z,94.34
2023-03-26T02:40:10.680Z,94.54
2023-03-26T02:41:10.669Z,94.96
2023-03-26T02:42:10.690Z,94.54
2023-03-26T02:43:10.667Z,94.96
2023-03-26T02:44:10.640Z,93.93
2023-03-26T02:45:10.632Z,94.65
2023-03-26T02:46:10.656Z,94.75
2023-03-26T02:47:10.651Z,94.44
2023-03-26T02:48:10.633Z,94.54
2023-03-26T02:49:10.580Z,94.85
2023-03-26T02:50:10.591Z,94.65
2023-03-26T02:51:10.580Z,94.54
2023-03-26T02:52:10.619Z,94.85
2023-03-26T02:53:10.543Z,94.44
2023-03-26T02:54:10.539Z,94.85
2023-03-26T02:55:10.523Z,94.75
2023-03-26T02:56:10.515Z,94.23
2023-03-26T02:57:10.617Z,94.54
2023-03-26T02:58:10.493Z,94.54
2023-03-26T02:59:10.478Z,94.96
2023-03-26T03:00:10.475Z,94.44
2023-03-26T03:01:10.495Z,94.75
2023-03-26T03:02:10.472Z,94.44
2023-03-26T03:03:10.500Z,94.75
2023-03-26T03:04:10.437Z,94.75
2023-03-26T03:05:10.422Z,94.65
2023-03-26T03:06:10.412Z,94.65
2023-03-26T03:07:10.395Z,94.75
2023-03-26T03:08:10.415Z,94.75
2023-03-26T03:09:10.369Z,95.10
2023-03-26T03:10:10.375Z,94.65
2023-03-26T03:11:10.382Z,95.00
2023-03-26T03:12:10.351Z,95.10
2023-03-26T03:13:10.372Z,94.34
2023-03-26T03:14:10.325Z,94.23
2023-03-26T03:15:10.311Z,94.96
2023-03-26T03:16:10.324Z,94.65
2023-03-26T03:17:10.309Z,94.79
2023-03-26T03:18:10.299Z,94.79
2023-03-26T03:19:10.268Z,94.79
2023-03-26T03:20:10.265Z,95.27
2023-03-26T03:21:10.248Z,95.00
2023-03-26T03:22:10.249Z,95.52
2023-03-26T03:23:10.273Z,95.52
2023-03-26T03:24:10.224Z,95.31
2023-03-26T03:25:10.208Z,95.21
2023-03-26T03:26:10.229Z,95.42
2023-03-26T03:27:10.313Z,95.42
2023-03-26T03:28:10.203Z,95.83
2023-03-26T03:29:10.163Z,95.42
2023-03-26T03:30:10.166Z,95.31
2023-03-26T03:31:10.200Z,95.00
2023-03-26T03:32:10.145Z,95.52
2023-03-26T03:33:10.179Z,95.42
2023-03-26T03:34:10.121Z,95.52
2023-03-26T03:35:10.117Z,95.62
2023-03-26T03:36:10.214Z,95.42
2023-03-26T03:37:10.090Z,95.57
2023-03-26T03:38:10.111Z,95.52
2023-03-26T03:39:10.066Z,95.52
2023-03-26T03:40:10.082Z,95.52
2023-03-26T03:41:10.062Z,95.62
2023-03-26T03:42:10.048Z,95.73
2023-03-26T03:43:10.064Z,95.52
2023-03-26T03:44:10.032Z,95.48
2023-03-26T03:45:10.038Z,95.94
2023-03-26T03:46:10.018Z,95.48
2023-03-26T03:47:09.978Z,96.09
2023-03-26T03:48:10.021Z,96.14
2023-03-26T03:49:09.962Z,96.34
2023-03-26T03:50:09.980Z,96.24
2023-03-26T03:51:09.946Z,96.03
2023-03-26T03:52:09.949Z,96.24
2023-03-26T03:53:10.073Z,95.94
2023-03-26T03:54:09.925Z,95.89
2023-03-26T03:55:09.900Z,96.09
2023-03-26T03:56:09.895Z,96.14
2023-03-26T03:57:09.960Z,96.55
2023-03-26T03:58:09.891Z,96.76
2023-03-26T03:59:09.881Z,97.28
2023-03-26T04:00:09.854Z,96.76
2023-03-26T04:01:09.839Z,96.86
2023-03-26T04:02:09.849Z,96.97
2023-03-26T04:03:09.996Z,96.86
2023-03-26T04:04:09.871Z,97.28
2023-03-26T04:05:09.811Z,97.38
2023-03-26T04:06:09.787Z,97.49
2023-03-26T04:07:09.775Z,97.49
2023-03-26T04:08:09.782Z,97.38
2023-03-26T04:09:09.766Z,97.49
2023-03-26T04:10:09.756Z,97.49
2023-03-26T04:11:09.727Z,97.79
2023-03-26T04:12:09.722Z,97.59
2023-03-26T04:13:09.743Z,97.59
2023-03-26T04:14:09.707Z,97.79
2023-03-26T04:15:09.691Z,97.89
2023-03-26T04:16:09.820Z,97.79
2023-03-26T04:17:09.667Z,97.69
2023-03-26T04:18:09.726Z,97.69
2023-03-26T04:19:09.651Z,97.79
2023-03-26T04:20:09.650Z,97.89
2023-03-26T04:21:09.629Z,97.89
2023-03-26T04:22:09.632Z,97.79
2023-03-26T04:23:09.658Z,97.69
2023-03-26T04:24:09.613Z,97.89
2023-03-26T04:25:09.592Z,97.79
2023-03-26T04:26:09.586Z,98.21
2023-03-26T04:27:09.566Z,98.00
2023-03-26T04:28:09.570Z,97.89
2023-03-26T04:29:09.548Z,97.59
2023-03-26T04:30:09.539Z,97.89
2023-03-26T04:31:09.559Z,97.89
2023-03-26T04:32:09.530Z,98.21
2023-03-26T04:33:09.525Z,98.41
2023-03-26T04:34:09.491Z,98.10
2023-03-26T04:35:09.472Z,97.89
2023-03-26T04:36:09.499Z,97.96
2023-03-26T04:37:09.531Z,98.00
2023-03-26T04:38:09.450Z,98.10
2023-03-26T04:39:09.477Z,98.21
2023-03-26T04:40:09.436Z,98.21
2023-03-26T04:41:09.372Z,98.21
2023-03-26T04:42:09.355Z,98.00
2023-03-26T04:43:09.401Z,98.21
2023-03-26T04:44:09.418Z,98.21
2023-03-26T04:45:09.334Z,98.31
2023-03-26T04:46:09.321Z,97.89
2023-03-26T04:47:09.359Z,98.10
2023-03-26T04:48:09.302Z,98.21
2023-03-26T04:49:09.307Z,98.10
2023-03-26T04:50:09.295Z,98.31
2023-03-26T04:51:09.251Z,98.31
2023-03-26T04:52:09.244Z,98.31
2023-03-26T04:53:09.232Z,98.31
2023-03-26T04:54:09.244Z,98.41
2023-03-26T04:55:09.210Z,98.27
2023-03-26T04:56:09.208Z,97.96
2023-03-26T04:57:09.274Z,97.54
2023-03-26T04:58:09.201Z,97.75
2023-03-26T04:59:09.187Z,97.75
2023-03-26T05:00:09.164Z,97.44
2023-03-26T05:01:10.571Z,97.64
2023-03-26T05:02:09.134Z,97.64
2023-03-26T05:03:09.180Z,97.64
2023-03-26T05:04:09.193Z,97.75
2023-03-26T05:05:09.104Z,97.75
2023-03-26T05:06:09.101Z,97.96
2023-03-26T05:07:09.093Z,98.16
2023-03-26T05:08:09.088Z,98.47
2023-03-26T05:09:09.078Z,98.37
2023-03-26T05:10:09.057Z,98.52
2023-03-26T05:11:09.037Z,98.31
2023-03-26T05:12:09.036Z,98.41
2023-03-26T05:13:09.025Z,98.41
2023-03-26T05:14:09.062Z,98.41
2023-03-26T05:15:09.016Z,98.41
2023-03-26T05:16:09.050Z,98.31
2023-03-26T05:17:08.979Z,98.41
2023-03-26T05:18:09.074Z,98.52
2023-03-26T05:19:09.019Z,98.10
2023-03-26T05:20:08.951Z,97.79
2023-03-26T05:21:08.936Z,97.54
2023-03-26T05:22:08.928Z,97.33
2023-03-26T05:23:08.918Z,97.33
2023-03-26T05:24:08.959Z,97.23
2023-03-26T05:25:08.895Z,96.92
2023-03-26T05:26:08.897Z,97.02
2023-03-26T05:27:08.875Z,96.88
2023-03-26T05:28:08.875Z,96.56
2023-03-26T05:29:08.889Z,96.36
2023-03-26T05:30:08.854Z,96.15
2023-03-26T05:31:08.832Z,95.95
2023-03-26T05:32:08.822Z,96.26
2023-03-26T05:33:08.870Z,96.05
2023-03-26T05:34:08.831Z,96.05
2023-03-26T05:35:08.787Z,95.90
2023-03-26T05:36:08.787Z,95.74
2023-03-26T05:37:08.768Z,95.28
2023-03-26T05:38:08.766Z,95.90
2023-03-26T05:39:08.777Z,95.49
2023-03-26T05:40:08.743Z,96.01
2023-03-26T05:41:08.744Z,96.42
2023-03-26T05:42:08.721Z,96.52
2023-03-26T05:43:08.720Z,96.83
2023-03-26T05:44:08.722Z,97.19
2023-03-26T05:45:08.690Z,97.29
2023-03-26T05:46:08.730Z,97.29
2023-03-26T05:47:08.665Z,97.71
2023-03-26T05:48:08.733Z,98.01
2023-03-26T05:49:08.668Z,98.01
2023-03-26T05:50:08.640Z,98.11
2023-03-26T05:51:08.627Z,97.91
2023-03-26T05:52:08.618Z,98.11
2023-03-26T05:53:08.616Z,98.32
2023-03-26T05:54:08.678Z,98.43
2023-03-26T05:55:08.586Z,98.63
2023-03-26T05:56:08.588Z,98.63
2023-03-26T05:57:08.692Z,98.53
2023-03-26T05:58:08.550Z,98.32
2023-03-26T05:59:08.560Z,98.22
2023-03-26T06:00:08.550Z,98.22
2023-03-26T06:01:08.557Z,98.11
2023-03-26T06:02:08.524Z,98.32
2023-03-26T06:03:08.573Z,97.91
2023-03-26T06:04:08.570Z,97.81
2023-03-26T06:05:08.477Z,97.29
2023-03-26T06:06:08.468Z,97.39
2023-03-26T06:07:08.463Z,97.39
2023-03-26T06:08:08.454Z,97.50
2023-03-26T06:09:08.467Z,97.39
2023-03-26T06:10:08.436Z,97.55
2023-03-26T06:11:08.420Z,97.29
2023-03-26T06:12:08.408Z,97.19
2023-03-26T06:13:08.423Z,97.55
2023-03-26T06:14:08.409Z,97.29
2023-03-26T06:15:08.366Z,97.39
2023-03-26T06:16:08.510Z,96.77
2023-03-26T06:17:08.359Z,96.56
2023-03-26T06:18:08.441Z,96.94
2023-03-26T06:19:08.389Z,96.62
2023-03-26T06:20:09.496Z,96.83
2023-03-26T06:21:08.307Z,96.73
2023-03-26T06:22:08.339Z,96.42
2023-03-26T06:23:08.285Z,95.59
2023-03-26T06:24:08.320Z,95.59
2023-03-26T06:25:08.277Z,95.28
2023-03-26T06:26:08.270Z,94.72
2023-03-26T06:27:08.326Z,94.62
2023-03-26T06:28:08.246Z,93.79
2023-03-26T06:29:08.257Z,93.65
2023-03-26T06:30:08.222Z,93.03
2023-03-26T06:31:08.208Z,92.16
2023-03-26T06:32:19.135Z,91.71
2023-03-26T06:33:08.203Z,90.88
2023-03-26T06:34:08.201Z,92.16
2023-03-26T06:35:08.207Z,92.16
2023-03-26T06:36:08.214Z,90.67
2023-03-26T06:37:08.145Z,90.53
2023-03-26T06:38:08.147Z,90.18
2023-03-26T06:39:08.241Z,89.15
2023-03-26T06:40:08.120Z,88.08
2023-03-26T06:41:08.104Z,87.52
2023-03-26T06:42:08.106Z,86.66
2023-03-26T06:43:10.827Z,85.22
2023-03-26T06:44:08.102Z,85.53
2023-03-26T06:45:08.091Z,86.35
2023-03-26T06:46:08.109Z,86.35
2023-03-26T06:47:08.049Z,85.74
2023-03-26T06:48:08.273Z,85.53
2023-03-26T06:49:08.037Z,85.84
2023-03-26T06:50:08.012Z,86.05
2023-03-26T06:51:08.066Z,86.25
2023-03-26T06:52:08.033Z,85.84
2023-03-26T06:53:08.020Z,85.53
2023-03-26T06:54:08.010Z,84.81
2023-03-26T06:55:07.973Z,85.94
2023-03-26T06:56:09.139Z,85.28
2023-03-26T06:57:08.031Z,85.14
2023-03-26T06:58:07.915Z,84.22
2023-03-26T06:59:07.935Z,84.12
2023-03-26T07:00:07.965Z,84.26
2023-03-26T07:01:07.946Z,84.47
2023-03-26T07:02:07.873Z,84.53
2023-03-26T07:03:07.953Z,85.18
2023-03-26T07:04:07.908Z,84.91
2023-03-26T07:05:07.871Z,85.08
2023-03-26T07:06:07.872Z,82.84
2023-03-26T07:07:07.834Z,81.54
2023-03-26T07:08:07.853Z,79.31
2023-03-26T07:09:07.859Z,77.84
2023-03-26T07:10:07.816Z,77.02
2023-03-26T07:11:07.798Z,77.29
2023-03-26T07:12:07.780Z,75.55
2023-03-26T07:13:07.771Z,77.12
2023-03-26T07:14:07.798Z,74.97
2023-03-26T07:15:07.752Z,77.46
2023-03-26T07:16:07.801Z,77.67
2023-03-26T07:17:07.746Z,75.52
2023-03-26T07:18:07.712Z,75.21
2023-03-26T07:19:07.732Z,77.39
2023-03-26T07:20:07.686Z,77.94
2023-03-26T07:21:07.690Z,78.90
2023-03-26T07:22:07.721Z,78.35
2023-03-26T07:23:07.677Z,78.90
2023-03-26T07:24:07.670Z,80.27
2023-03-26T07:25:07.854Z,80.41
2023-03-26T07:26:07.628Z,80.76
2023-03-26T07:27:07.624Z,80.68
2023-03-26T07:28:07.615Z,79.24
2023-03-26T07:29:07.625Z,80.13
2023-03-26T07:30:07.586Z,78.28
2023-03-26T07:31:07.589Z,79.72
2023-03-26T07:32:07.673Z,79.35
2023-03-26T07:33:07.556Z,80.13
2023-03-26T07:34:07.560Z,79.41
2023-03-26T07:35:07.579Z,80.27
2023-03-26T07:36:07.530Z,79.31
2023-03-26T07:37:07.525Z,80.99
2023-03-26T07:38:07.516Z,81.20
2023-03-26T07:39:07.551Z,81.34
2023-03-26T07:40:07.488Z,81.06
2023-03-26T07:41:07.488Z,81.71
2023-03-26T07:42:07.456Z,82.64
2023-03-26T07:43:07.453Z,83.40
2023-03-26T07:44:07.465Z,84.63
2023-03-26T07:45:07.455Z,85.04
2023-03-26T07:46:07.455Z,84.63
2023-03-26T07:47:07.410Z,82.78
2023-03-26T07:48:07.393Z,83.91
2023-03-26T07:49:07.382Z,83.95
2023-03-26T07:50:07.411Z,84.16
2023-03-26T07:51:07.364Z,84.47
2023-03-26T07:52:07.361Z,83.95
2023-03-26T07:53:07.351Z,85.08
2023-03-26T07:54:07.330Z,85.04
2023-03-26T07:55:07.343Z,84.26
2023-03-26T07:56:07.328Z,82.71
2023-03-26T07:57:07.388Z,85.28
2023-03-26T07:58:07.302Z,84.36
2023-03-26T07:59:07.275Z,84.56
2023-03-26T08:00:07.331Z,84.47
2023-03-26T08:01:07.263Z,84.81
2023-03-26T08:02:07.257Z,85.63
2023-03-26T08:03:07.496Z,85.53
2023-03-26T08:04:23.640Z,86.29
2023-03-26T08:05:07.273Z,86.70
2023-03-26T08:06:07.199Z,88.04
2023-03-26T08:07:07.233Z,88.45
2023-03-26T08:08:07.185Z,87.73
2023-03-26T08:09:07.223Z,87.42
2023-03-26T08:10:07.246Z,87.52
2023-03-26T08:11:07.160Z,87.12
2023-03-26T08:12:07.157Z,87.05
2023-03-26T08:13:07.125Z,88.14
2023-03-26T08:14:07.119Z,87.42
2023-03-26T08:15:07.134Z,86.70
2023-03-26T08:16:07.113Z,86.29
2023-03-26T08:17:07.098Z,85.53
2023-03-26T08:18:07.111Z,87.38
2023-03-26T08:19:07.085Z,87.07
2023-03-26T08:20:07.072Z,86.87
2023-03-26T08:21:07.062Z,86.87
2023-03-26T08:22:07.037Z,87.49
2023-03-26T08:23:07.029Z,86.87
2023-03-26T08:24:07.006Z,86.93
2023-03-26T08:25:07.030Z,85.74
2023-03-26T08:26:07.025Z,85.84
2023-03-26T08:27:06.996Z,86.66
2023-03-26T08:28:06.964Z,85.94
2023-03-26T08:29:06.964Z,86.35
2023-03-26T08:30:06.959Z,85.88
2023-03-26T08:31:06.951Z,86.70
2023-03-26T08:32:06.945Z,87.01
2023-03-26T08:33:06.985Z,87.38
2023-03-26T08:34:06.901Z,88.00
2023-03-26T08:35:06.921Z,85.74
2023-03-26T08:36:06.951Z,86.05
2023-03-26T08:37:06.933Z,85.57
2023-03-26T08:38:06.852Z,86.29
2023-03-26T08:39:06.940Z,86.66
2023-03-26T08:40:06.852Z,87.38
2023-03-26T08:41:06.854Z,87.69
2023-03-26T08:42:06.821Z,86.29
2023-03-26T08:43:06.829Z,86.70
2023-03-26T08:44:06.787Z,86.60
2023-03-26T08:45:06.813Z,86.97
2023-03-26T08:46:06.799Z,87.63
2023-03-26T08:47:06.761Z,87.18
2023-03-26T08:48:06.791Z,85.94
2023-03-26T08:49:06.756Z,87.07
2023-03-26T08:50:06.751Z,87.18
2023-03-26T08:51:06.732Z,86.97
2023-03-26T08:52:06.745Z,87.28
2023-03-26T08:53:06.703Z,86.46
2023-03-26T08:54:06.683Z,85.84
2023-03-26T08:55:06.707Z,86.35
2023-03-26T08:56:06.658Z,86.87
2023-03-26T08:57:06.707Z,87.24
2023-03-26T08:58:06.652Z,86.11
2023-03-26T08:59:06.637Z,85.43
2023-03-26T09:00:06.641Z,84.98
2023-03-26T09:01:06.629Z,86.32
2023-03-26T09:02:06.640Z,86.11
2023-03-26T09:03:06.622Z,85.39
2023-03-26T09:04:06.649Z,85.33
2023-03-26T09:05:06.605Z,86.77
2023-03-26T09:06:06.557Z,86.15
2023-03-26T09:07:06.563Z,86.87
2023-03-26T09:08:06.542Z,87.75
2023-03-26T09:09:06.542Z,87.55
2023-03-26T09:10:06.542Z,86.42
2023-03-26T09:11:06.524Z,85.80
2023-03-26T09:12:06.505Z,86.11
2023-03-26T09:13:06.511Z,84.88
2023-03-26T09:14:06.477Z,84.98
2023-03-26T09:15:06.571Z,86.35
2023-03-26T09:16:06.498Z,85.49
2023-03-26T09:17:06.451Z,84.50
2023-03-26T09:18:06.568Z,86.25
2023-03-26T09:19:06.430Z,85.74
2023-03-26T09:20:06.465Z,85.74
2023-03-26T09:21:06.439Z,84.91
2023-03-26T09:22:06.403Z,86.05
2023-03-26T09:23:06.386Z,86.35
2023-03-26T09:24:06.422Z,85.63
2023-03-26T09:25:06.427Z,86.97
2023-03-26T09:26:06.368Z,85.02
2023-03-26T09:27:06.351Z,84.71
2023-03-26T09:28:06.364Z,84.77
2023-03-26T09:29:06.354Z,83.58
2023-03-26T09:30:06.652Z,84.05
2023-03-26T09:31:06.341Z,84.71
2023-03-26T09:32:06.294Z,85.39
2023-03-26T09:33:06.359Z,84.88
2023-03-26T09:34:06.264Z,84.01
2023-03-26T09:35:06.320Z,84.01
2023-03-26T09:36:06.256Z,84.22
2023-03-26T09:37:06.250Z,84.32
2023-03-26T09:38:06.241Z,85.14
2023-03-26T09:39:06.224Z,84.94
2023-03-26T09:40:06.233Z,84.63
2023-03-26T09:41:06.207Z,84.42
2023-03-26T09:42:06.182Z,84.42
2023-03-26T09:43:06.178Z,87.10
2023-03-26T09:44:06.167Z,86.48
2023-03-26T09:45:06.184Z,87.82
2023-03-26T09:46:06.186Z,86.99
2023-03-26T09:47:06.168Z,87.20
2023-03-26T09:48:06.125Z,87.20
2023-03-26T09:49:06.109Z,86.11
2023-03-26T09:50:06.125Z,86.83
2023-03-26T09:51:06.124Z,86.62
2023-03-26T09:52:06.079Z,86.62
2023-03-26T09:53:06.065Z,87.55
2023-03-26T09:54:06.061Z,86.79
2023-03-26T09:55:06.064Z,88.23
2023-03-26T09:56:06.034Z,87.40
2023-03-26T09:57:06.048Z,85.35
2023-03-26T09:58:06.039Z,86.89
2023-03-26T09:59:06.000Z,86.07
2023-03-26T10:00:06.019Z,85.46
2023-03-26T10:01:06.067Z,85.00
2023-03-26T10:02:05.978Z,85.00
2023-03-26T10:03:06.002Z,84.53
2023-03-26T10:04:05.952Z,86.17
2023-03-26T10:05:06.028Z,87.05
2023-03-26T10:06:05.927Z,86.65
2023-03-26T10:07:05.931Z,86.13
2023-03-26T10:08:05.928Z,86.24
2023-03-26T10:09:05.921Z,85.62
2023-03-26T10:10:05.948Z,86.13
2023-03-26T10:11:05.882Z,85.97
2023-03-26T10:12:05.862Z,86.24
2023-03-26T10:13:14.509Z,86.85
2023-03-26T10:14:05.851Z,88.08
2023-03-26T10:15:05.889Z,85.31
2023-03-26T10:16:05.818Z,85.52
2023-03-26T10:17:05.856Z,85.11
2023-03-26T10:18:27.652Z,85.82
2023-03-26T10:19:05.813Z,85.35
2023-03-26T10:20:06.348Z,85.97
2023-03-26T10:21:05.789Z,86.89
2023-03-26T10:22:05.968Z,87.13
2023-03-26T10:23:05.750Z,86.62
2023-03-26T10:24:05.735Z,87.85
2023-03-26T10:25:05.807Z,89.40
2023-03-26T10:26:05.711Z,88.12
2023-03-26T10:27:09.730Z,88.53
2023-03-26T10:28:05.699Z,88.33
2023-03-26T10:29:05.707Z,88.23
2023-03-26T10:30:05.858Z,87.20
2023-03-26T10:31:05.681Z,88.43
2023-03-26T10:32:05.646Z,88.95
2023-03-26T10:33:05.705Z,89.04
2023-03-26T10:34:05.623Z,88.84
2023-03-26T10:35:05.655Z,88.74
2023-03-26T10:36:05.651Z,88.33
2023-03-26T10:37:05.612Z,89.04
2023-03-26T10:38:05.573Z,89.81
2023-03-26T10:39:05.583Z,90.73
2023-03-26T10:40:05.577Z,90.42
2023-03-26T10:41:05.564Z,90.32
2023-03-26T10:42:05.540Z,90.26
2023-03-26T10:43:05.540Z,91.39
2023-03-26T10:44:08.833Z,92.32
2023-03-26T10:45:07.351Z,90.57
2023-03-26T10:46:05.555Z,92.52
2023-03-26T10:47:05.490Z,90.88
2023-03-26T10:48:05.512Z,91.70
2023-03-26T10:49:05.480Z,91.70
2023-03-26T10:50:05.477Z,92.83
2023-03-26T10:51:05.476Z,93.55
2023-03-26T10:52:05.431Z,91.70
2023-03-26T10:53:05.424Z,92.83
2023-03-26T10:54:05.417Z,91.49
2023-03-26T10:55:05.426Z,92.52
2023-03-26T10:56:05.401Z,93.65
2023-03-26T10:57:05.388Z,92.42
2023-03-26T10:58:05.372Z,93.44
2023-03-26T10:59:05.358Z,94.27
2023-03-26T11:00:05.343Z,94.78
2023-03-26T11:01:06.323Z,94.58
2023-03-26T11:02:05.329Z,93.90
2023-03-26T11:03:05.346Z,95.14
2023-03-26T11:04:05.318Z,95.45
2023-03-26T11:05:05.322Z,94.11
2023-03-26T11:06:05.303Z,94.93
2023-03-26T11:07:05.288Z,96.27
2023-03-26T11:08:05.311Z,95.39
2023-03-26T11:09:05.252Z,94.77
2023-03-26T11:10:05.272Z,94.67
2023-03-26T11:11:05.265Z,94.98
2023-03-26T11:12:25.597Z,95.59
2023-03-26T11:13:05.211Z,96.11
2023-03-26T11:14:05.233Z,95.28
2023-03-26T11:15:05.200Z,95.80
2023-03-26T11:16:05.257Z,95.80
2023-03-26T11:17:05.171Z,94.77
2023-03-26T11:18:05.186Z,95.08
2023-03-26T11:19:05.760Z,95.28
2023-03-26T11:20:05.182Z,96.99
2023-03-26T11:21:19.554Z,95.90
2023-03-26T11:22:05.121Z,96.42
2023-03-26T11:23:05.106Z,96.11
2023-03-26T11:24:06.353Z,96.89
2023-03-26T11:25:05.741Z,96.99
2023-03-26T11:26:05.118Z,95.03
2023-03-26T11:27:15.017Z,95.03
2023-03-26T11:28:05.063Z,94.21
2023-03-26T11:29:31.767Z,95.18
2023-03-26T11:30:05.045Z,94.26
2023-03-26T11:31:05.113Z,94.98
2023-03-26T11:32:05.018Z,95.90
2023-03-26T11:33:05.055Z,97.24
2023-03-26T11:34:05.001Z,96.00
2023-03-26T11:35:05.002Z,96.21
2023-03-26T11:36:05.027Z,96.42
2023-03-26T11:37:04.975Z,96.42
2023-03-26T11:38:04.978Z,97.03
2023-03-26T11:39:04.948Z,96.00
2023-03-26T11:40:04.949Z,97.55
2023-03-26T11:41:04.934Z,96.31
2023-03-26T11:42:04.910Z,96.05
2023-03-26T11:43:04.895Z,95.43
2023-03-26T11:44:04.895Z,97.18
2023-03-26T11:45:04.896Z,97.60
2023-03-26T11:46:04.900Z,97.60
2023-03-26T11:47:04.854Z,97.49
2023-03-26T11:48:04.892Z,97.80
2023-03-26T11:49:04.835Z,97.49
2023-03-26T11:50:04.908Z,97.90
2023-03-26T11:51:04.815Z,97.28
2023-03-26T11:52:04.813Z,97.23
2023-03-26T11:53:04.791Z,98.25
2023-03-26T11:54:04.822Z,98.25
2023-03-26T11:55:04.787Z,97.74
2023-03-26T11:56:04.785Z,97.85
2023-03-26T11:57:07.225Z,99.29
2023-03-26T11:58:04.739Z,99.29
2023-03-26T11:59:04.731Z,97.99
2023-03-26T12:00:04.775Z,98.41
2023-03-26T12:01:04.715Z,98.10
2023-03-26T12:02:04.755Z,96.03
2023-03-26T12:03:04.766Z,96.86
2023-03-26T12:04:04.721Z,97.06
2023-03-26T12:05:04.779Z,97.38
2023-03-26T12:06:04.788Z,97.85
2023-03-26T12:07:04.634Z,96.41
2023-03-26T12:08:04.638Z,95.93
2023-03-26T12:09:04.618Z,96.96
2023-03-26T12:10:18.334Z,96.34
2023-03-26T12:11:04.624Z,97.89
2023-03-26T12:12:04.584Z,97.06
2023-03-26T12:13:04.577Z,97.85
2023-03-26T12:14:04.572Z,97.17
2023-03-26T12:15:04.553Z,97.27
2023-03-26T12:16:04.587Z,95.21
2023-03-26T12:17:04.540Z,96.55
2023-03-26T12:18:04.585Z,96.96
2023-03-26T12:19:04.517Z,97.89
2023-03-26T12:20:04.523Z,96.96
2023-03-26T12:21:04.513Z,97.58
2023-03-26T12:22:04.486Z,98.77
2023-03-26T12:23:04.468Z,98.46
2023-03-26T12:24:04.481Z,96.66
2023-03-26T12:25:04.448Z,97.38
2023-03-26T12:26:04.460Z,96.49
2023-03-26T12:27:04.424Z,96.59
2023-03-26T12:28:04.415Z,96.33
2023-03-26T12:29:04.412Z,97.47
2023-03-26T12:30:04.407Z,96.23
2023-03-26T12:31:04.400Z,96.27
2023-03-26T12:32:04.420Z,97.20
2023-03-26T12:33:04.394Z,97.20
2023-03-26T12:34:04.375Z,97.41
2023-03-26T12:35:04.338Z,97.09
2023-03-26T12:36:04.642Z,97.51
2023-03-26T12:37:04.313Z,97.41
2023-03-26T12:38:04.325Z,97.82
2023-03-26T12:40:05.972Z,98.39
2023-03-26T12:40:19.453Z,98.60
2023-03-26T12:41:04.761Z,98.60
2023-03-26T12:44:42.836Z,97.16
2023-03-26T12:44:59.657Z,95.92
2023-03-26T12:45:05.644Z,95.96
2023-03-26T12:47:56.221Z,97.41
2023-03-26T12:48:07.311Z,96.48
2023-03-26T12:48:12.845Z,97.20
2023-03-26T12:49:12.914Z,96.69
2023-03-26T12:50:12.771Z,95.86
2023-03-26T12:51:12.788Z,96.48
2023-03-26T12:52:12.781Z,96.89
2023-03-26T12:53:12.741Z,97.30
2023-03-26T12:54:12.716Z,96.79
2023-03-26T12:57:30.775Z,97.09
2023-03-26T12:58:31.684Z,97.09